sensor_id;sensor_type;location;lat;lon;timestamp;P1;durP1;ratioP1;P2;durP2;ratioP2
14554;SDS011;7364;50.870;4.722;2023-04-23T00:01:58;26.43;;;21.83;;
14554;SDS011;7364;50.870;4.722;2023-04-23T00:04:27;25.13;;;22.20;;
14554;SDS011;7364;50.870;4.722;2023-04-23T00:06:58;23.60;;;20.23;;
14554;SDS011;7364;50.870;4.722;2023-04-23T00:09:28;23.53;;;21.03;;
14554;SDS011;7364;50.870;4.722;2023-04-23T00:11:56;27.27;;;22.03;;
14554;SDS011;7364;50.870;4.722;2023-04-23T00:14:25;28.73;;;19.73;;
14554;SDS011;7364;50.870;4.722;2023-04-23T00:16:53;22.40;;;19.27;;
14554;SDS011;7364;50.870;4.722;2023-04-23T00:19:22;23.07;;;20.00;;
14554;SDS011;7364;50.870;4.722;2023-04-23T00:21:50;24.33;;;19.87;;
14554;SDS011;7364;50.870;4.722;2023-04-23T00:24:17;22.60;;;19.70;;
14554;SDS011;7364;50.870;4.722;2023-04-23T00:26:45;23.90;;;19.27;;
14554;SDS011;7364;50.870;4.722;2023-04-23T00:29:13;20.80;;;18.13;;
14554;SDS011;7364;50.870;4.722;2023-04-23T00:31:40;25.50;;;18.37;;
14554;SDS011;7364;50.870;4.722;2023-04-23T00:34:09;22.17;;;19.67;;
14554;SDS011;7364;50.870;4.722;2023-04-23T00:36:38;24.13;;;20.03;;
14554;SDS011;7364;50.870;4.722;2023-04-23T00:39:05;20.63;;;17.63;;
14554;SDS011;7364;50.870;4.722;2023-04-23T00:41:33;20.80;;;17.70;;
14554;SDS011;7364;50.870;4.722;2023-04-23T00:44:01;20.67;;;18.50;;
14554;SDS011;7364;50.870;4.722;2023-04-23T00:46:28;19.90;;;17.70;;
14554;SDS011;7364;50.870;4.722;2023-04-23T00:48:56;20.27;;;17.60;;
14554;SDS011;7364;50.870;4.722;2023-04-23T00:51:25;21.33;;;17.33;;
14554;SDS011;7364;50.870;4.722;2023-04-23T00:53:55;21.97;;;18.60;;
14554;SDS011;7364;50.870;4.722;2023-04-23T00:56:22;20.17;;;18.07;;
14554;SDS011;7364;50.870;4.722;2023-04-23T00:58:50;21.90;;;18.60;;
14554;SDS011;7364;50.870;4.722;2023-04-23T01:01:18;20.23;;;17.97;;
14554;SDS011;7364;50.870;4.722;2023-04-23T01:03:46;22.53;;;17.87;;
14554;SDS011;7364;50.870;4.722;2023-04-23T01:06:16;19.30;;;17.30;;
14554;SDS011;7364;50.870;4.722;2023-04-23T01:08:44;18.90;;;16.10;;
14554;SDS011;7364;50.870;4.722;2023-04-23T01:11:14;17.67;;;15.87;;
14554;SDS011;7364;50.870;4.722;2023-04-23T01:13:42;19.50;;;14.80;;
14554;SDS011;7364;50.870;4.722;2023-04-23T01:16:09;21.83;;;14.53;;
14554;SDS011;7364;50.870;4.722;2023-04-23T01:18:37;21.27;;;16.13;;
14554;SDS011;7364;50.870;4.722;2023-04-23T01:21:06;18.53;;;14.77;;
14554;SDS011;7364;50.870;4.722;2023-04-23T01:23:37;17.93;;;14.37;;
14554;SDS011;7364;50.870;4.722;2023-04-23T01:26:05;17.97;;;13.67;;
14554;SDS011;7364;50.870;4.722;2023-04-23T01:28:35;16.70;;;14.97;;
14554;SDS011;7364;50.870;4.722;2023-04-23T01:31:05;18.27;;;14.33;;
14554;SDS011;7364;50.870;4.722;2023-04-23T01:33:32;16.30;;;14.07;;
14554;SDS011;7364;50.870;4.722;2023-04-23T01:36:01;22.43;;;15.20;;
14554;SDS011;7364;50.870;4.722;2023-04-23T01:38:29;19.67;;;15.43;;
14554;SDS011;7364;50.870;4.722;2023-04-23T01:41:00;18.43;;;15.00;;
14554;SDS011;7364;50.870;4.722;2023-04-23T01:43:27;17.23;;;14.23;;
14554;SDS011;7364;50.870;4.722;2023-04-23T01:45:56;18.70;;;15.20;;
14554;SDS011;7364;50.870;4.722;2023-04-23T01:48:23;15.20;;;13.63;;
14554;SDS011;7364;50.870;4.722;2023-04-23T01:50:51;16.17;;;14.53;;
14554;SDS011;7364;50.870;4.722;2023-04-23T01:53:19;15.30;;;13.70;;
14554;SDS011;7364;50.870;4.722;2023-04-23T01:55:47;15.90;;;13.20;;
14554;SDS011;7364;50.870;4.722;2023-04-23T01:58:17;17.43;;;15.33;;
14554;SDS011;7364;50.870;4.722;2023-04-23T02:00:45;19.73;;;13.90;;
14554;SDS011;7364;50.870;4.722;2023-04-23T02:03:12;15.30;;;13.80;;
14554;SDS011;7364;50.870;4.722;2023-04-23T02:05:40;18.30;;;13.87;;
14554;SDS011;7364;50.870;4.722;2023-04-23T02:08:08;15.97;;;14.37;;
14554;SDS011;7364;50.870;4.722;2023-04-23T02:10:35;16.10;;;13.90;;
14554;SDS011;7364;50.870;4.722;2023-04-23T02:13:03;15.07;;;12.73;;
14554;SDS011;7364;50.870;4.722;2023-04-23T02:15:32;17.57;;;13.00;;
14554;SDS011;7364;50.870;4.722;2023-04-23T02:18:02;15.00;;;12.93;;
14554;SDS011;7364;50.870;4.722;2023-04-23T02:20:30;13.40;;;12.10;;
14554;SDS011;7364;50.870;4.722;2023-04-23T02:22:57;15.13;;;12.37;;
14554;SDS011;7364;50.870;4.722;2023-04-23T02:25:24;14.17;;;12.77;;
14554;SDS011;7364;50.870;4.722;2023-04-23T02:27:52;13.97;;;12.47;;
14554;SDS011;7364;50.870;4.722;2023-04-23T02:30:21;15.60;;;12.27;;
14554;SDS011;7364;50.870;4.722;2023-04-23T02:32:51;16.50;;;13.57;;
14554;SDS011;7364;50.870;4.722;2023-04-23T02:35:18;13.87;;;12.40;;
14554;SDS011;7364;50.870;4.722;2023-04-23T02:37:45;14.83;;;12.33;;
14554;SDS011;7364;50.870;4.722;2023-04-23T02:40:13;15.03;;;12.00;;
14554;SDS011;7364;50.870;4.722;2023-04-23T02:42:41;13.93;;;12.43;;
14554;SDS011;7364;50.870;4.722;2023-04-23T02:45:08;14.93;;;13.03;;
14554;SDS011;7364;50.870;4.722;2023-04-23T02:47:36;13.53;;;12.13;;
14554;SDS011;7364;50.870;4.722;2023-04-23T02:50:05;17.80;;;12.57;;
14554;SDS011;7364;50.870;4.722;2023-04-23T02:52:33;15.97;;;11.90;;
14554;SDS011;7364;50.870;4.722;2023-04-23T02:55:00;13.33;;;11.47;;
14554;SDS011;7364;50.870;4.722;2023-04-23T02:57:28;14.33;;;12.17;;
14554;SDS011;7364;50.870;4.722;2023-04-23T02:59:57;15.03;;;11.73;;
14554;SDS011;7364;50.870;4.722;2023-04-23T03:02:24;14.90;;;12.03;;
14554;SDS011;7364;50.870;4.722;2023-04-23T03:04:51;12.63;;;11.13;;
14554;SDS011;7364;50.870;4.722;2023-04-23T03:07:20;16.17;;;13.17;;
14554;SDS011;7364;50.870;4.722;2023-04-23T03:09:48;13.80;;;11.63;;
14554;SDS011;7364;50.870;4.722;2023-04-23T03:12:15;12.13;;;10.97;;
14554;SDS011;7364;50.870;4.722;2023-04-23T03:14:42;14.63;;;12.33;;
14554;SDS011;7364;50.870;4.722;2023-04-23T03:17:10;16.70;;;12.83;;
14554;SDS011;7364;50.870;4.722;2023-04-23T03:19:37;12.80;;;11.43;;
14554;SDS011;7364;50.870;4.722;2023-04-23T03:22:04;13.67;;;11.30;;
14554;SDS011;7364;50.870;4.722;2023-04-23T03:24:33;13.97;;;10.80;;
14554;SDS011;7364;50.870;4.722;2023-04-23T03:27:01;12.83;;;11.53;;
14554;SDS011;7364;50.870;4.722;2023-04-23T03:29:28;12.33;;;10.97;;
14554;SDS011;7364;50.870;4.722;2023-04-23T03:31:55;13.17;;;10.30;;
14554;SDS011;7364;50.870;4.722;2023-04-23T03:34:23;11.37;;;9.70;;
14554;SDS011;7364;50.870;4.722;2023-04-23T03:36:50;12.53;;;10.90;;
14554;SDS011;7364;50.870;4.722;2023-04-23T03:39:17;11.77;;;10.60;;
14554;SDS011;7364;50.870;4.722;2023-04-23T03:41:46;15.40;;;10.83;;
14554;SDS011;7364;50.870;4.722;2023-04-23T03:44:14;13.70;;;10.27;;
14554;SDS011;7364;50.870;4.722;2023-04-23T03:46:42;18.20;;;11.80;;
14554;SDS011;7364;50.870;4.722;2023-04-23T03:49:09;12.87;;;11.07;;
14554;SDS011;7364;50.870;4.722;2023-04-23T03:51:37;12.63;;;10.30;;
14554;SDS011;7364;50.870;4.722;2023-04-23T03:54:04;13.63;;;10.33;;
14554;SDS011;7364;50.870;4.722;2023-04-23T03:56:31;11.50;;;10.13;;
14554;SDS011;7364;50.870;4.722;2023-04-23T03:59:00;12.87;;;10.73;;
14554;SDS011;7364;50.870;4.722;2023-04-23T04:01:27;13.73;;;10.07;;
14554;SDS011;7364;50.870;4.722;2023-04-23T04:03:56;10.93;;;9.33;;
14554;SDS011;7364;50.870;4.722;2023-04-23T04:06:24;10.47;;;9.37;;
14554;SDS011;7364;50.870;4.722;2023-04-23T04:08:51;11.80;;;9.80;;
14554;SDS011;7364;50.870;4.722;2023-04-23T04:11:18;15.03;;;10.43;;
14554;SDS011;7364;50.870;4.722;2023-04-23T04:13:46;10.57;;;9.43;;
14554;SDS011;7364;50.870;4.722;2023-04-23T04:16:15;11.10;;;9.63;;
14554;SDS011;7364;50.870;4.722;2023-04-23T04:18:42;11.63;;;9.30;;
14554;SDS011;7364;50.870;4.722;2023-04-23T04:21:10;11.87;;;9.80;;
14554;SDS011;7364;50.870;4.722;2023-04-23T04:23:37;11.10;;;9.70;;
14554;SDS011;7364;50.870;4.722;2023-04-23T04:26:04;11.17;;;9.37;;
14554;SDS011;7364;50.870;4.722;2023-04-23T04:28:32;10.90;;;9.03;;
14554;SDS011;7364;50.870;4.722;2023-04-23T04:31:01;12.80;;;9.03;;
14554;SDS011;7364;50.870;4.722;2023-04-23T04:33:31;13.90;;;10.20;;
14554;SDS011;7364;50.870;4.722;2023-04-23T04:35:59;12.17;;;9.50;;
14554;SDS011;7364;50.870;4.722;2023-04-23T04:38:27;11.93;;;9.90;;
14554;SDS011;7364;50.870;4.722;2023-04-23T04:40:55;12.13;;;8.80;;
14554;SDS011;7364;50.870;4.722;2023-04-23T04:43:24;16.10;;;9.63;;
14554;SDS011;7364;50.870;4.722;2023-04-23T04:45:51;11.17;;;9.27;;
14554;SDS011;7364;50.870;4.722;2023-04-23T04:48:19;19.37;;;9.30;;
14554;SDS011;7364;50.870;4.722;2023-04-23T04:50:48;14.37;;;9.70;;
14554;SDS011;7364;50.870;4.722;2023-04-23T04:53:15;9.07;;;8.13;;
14554;SDS011;7364;50.870;4.722;2023-04-23T04:55:43;11.23;;;8.83;;
14554;SDS011;7364;50.870;4.722;2023-04-23T04:58:12;11.60;;;8.90;;
14554;SDS011;7364;50.870;4.722;2023-04-23T05:00:39;13.77;;;8.47;;
14554;SDS011;7364;50.870;4.722;2023-04-23T05:03:07;11.43;;;8.87;;
14554;SDS011;7364;50.870;4.722;2023-04-23T05:05:35;10.80;;;8.37;;
14554;SDS011;7364;50.870;4.722;2023-04-23T05:08:04;13.70;;;8.77;;
14554;SDS011;7364;50.870;4.722;2023-04-23T05:10:31;13.80;;;9.33;;
14554;SDS011;7364;50.870;4.722;2023-04-23T05:12:59;11.43;;;8.30;;
14554;SDS011;7364;50.870;4.722;2023-04-23T05:15:26;14.47;;;8.47;;
14554;SDS011;7364;50.870;4.722;2023-04-23T05:17:53;10.33;;;8.27;;
14554;SDS011;7364;50.870;4.722;2023-04-23T05:20:21;14.20;;;8.83;;
14554;SDS011;7364;50.870;4.722;2023-04-23T05:22:48;11.33;;;8.30;;
14554;SDS011;7364;50.870;4.722;2023-04-23T05:25:17;10.27;;;7.87;;
14554;SDS011;7364;50.870;4.722;2023-04-23T05:27:45;9.77;;;7.40;;
14554;SDS011;7364;50.870;4.722;2023-04-23T05:30:12;12.37;;;8.47;;
14554;SDS011;7364;50.870;4.722;2023-04-23T05:32:40;10.57;;;7.63;;
14554;SDS011;7364;50.870;4.722;2023-04-23T05:35:07;10.10;;;7.37;;
14554;SDS011;7364;50.870;4.722;2023-04-23T05:37:35;13.47;;;8.87;;
14554;SDS011;7364;50.870;4.722;2023-04-23T05:40:02;10.50;;;7.37;;
14554;SDS011;7364;50.870;4.722;2023-04-23T05:42:33;12.20;;;7.10;;
14554;SDS011;7364;50.870;4.722;2023-04-23T05:45:01;11.93;;;7.47;;
14554;SDS011;7364;50.870;4.722;2023-04-23T05:47:29;10.33;;;7.13;;
14554;SDS011;7364;50.870;4.722;2023-04-23T05:49:56;8.60;;;7.70;;
14554;SDS011;7364;50.870;4.722;2023-04-23T05:52:23;9.70;;;6.97;;
14554;SDS011;7364;50.870;4.722;2023-04-23T05:54:51;7.67;;;6.67;;
14554;SDS011;7364;50.870;4.722;2023-04-23T05:57:18;10.43;;;6.03;;
14554;SDS011;7364;50.870;4.722;2023-04-23T05:59:48;11.67;;;7.00;;
14554;SDS011;7364;50.870;4.722;2023-04-23T06:02:15;7.33;;;5.97;;
14554;SDS011;7364;50.870;4.722;2023-04-23T06:04:43;7.07;;;5.83;;
14554;SDS011;7364;50.870;4.722;2023-04-23T06:07:10;10.03;;;6.57;;
14554;SDS011;7364;50.870;4.722;2023-04-23T06:09:39;10.80;;;6.67;;
14554;SDS011;7364;50.870;4.722;2023-04-23T06:12:07;7.27;;;6.27;;
14554;SDS011;7364;50.870;4.722;2023-04-23T06:14:35;7.53;;;6.63;;
14554;SDS011;7364;50.870;4.722;2023-04-23T06:17:04;13.63;;;6.43;;
14554;SDS011;7364;50.870;4.722;2023-04-23T06:19:31;8.97;;;6.03;;
14554;SDS011;7364;50.870;4.722;2023-04-23T06:21:59;8.37;;;6.47;;
14554;SDS011;7364;50.870;4.722;2023-04-23T06:24:26;9.70;;;5.83;;
14554;SDS011;7364;50.870;4.722;2023-04-23T06:26:56;12.87;;;5.90;;
14554;SDS011;7364;50.870;4.722;2023-04-23T06:29:24;8.63;;;5.50;;
14554;SDS011;7364;50.870;4.722;2023-04-23T06:31:53;8.03;;;5.13;;
14554;SDS011;7364;50.870;4.722;2023-04-23T06:34:22;6.87;;;4.83;;
14554;SDS011;7364;50.870;4.722;2023-04-23T06:36:49;6.90;;;5.27;;
14554;SDS011;7364;50.870;4.722;2023-04-23T06:39:17;8.23;;;5.43;;
14554;SDS011;7364;50.870;4.722;2023-04-23T06:41:45;8.47;;;5.53;;
14554;SDS011;7364;50.870;4.722;2023-04-23T06:44:12;7.23;;;4.80;;
14554;SDS011;7364;50.870;4.722;2023-04-23T06:46:39;12.23;;;4.73;;
14554;SDS011;7364;50.870;4.722;2023-04-23T06:49:07;7.60;;;4.90;;
14554;SDS011;7364;50.870;4.722;2023-04-23T06:51:36;6.10;;;4.60;;
14554;SDS011;7364;50.870;4.722;2023-04-23T06:54:03;9.63;;;4.70;;
14554;SDS011;7364;50.870;4.722;2023-04-23T06:56:31;6.27;;;4.37;;
14554;SDS011;7364;50.870;4.722;2023-04-23T06:58:58;6.23;;;4.17;;
14554;SDS011;7364;50.870;4.722;2023-04-23T07:01:26;7.97;;;3.77;;
14554;SDS011;7364;50.870;4.722;2023-04-23T07:03:53;8.67;;;4.07;;
14554;SDS011;7364;50.870;4.722;2023-04-23T07:06:21;7.17;;;3.77;;
14554;SDS011;7364;50.870;4.722;2023-04-23T07:08:49;4.67;;;3.53;;
14554;SDS011;7364;50.870;4.722;2023-04-23T07:11:17;7.73;;;4.17;;
14554;SDS011;7364;50.870;4.722;2023-04-23T07:13:44;8.40;;;3.87;;
14554;SDS011;7364;50.870;4.722;2023-04-23T07:16:12;5.70;;;3.43;;
14554;SDS011;7364;50.870;4.722;2023-04-23T07:18:39;5.87;;;3.27;;
14554;SDS011;7364;50.870;4.722;2023-04-23T07:21:06;10.27;;;4.40;;
14554;SDS011;7364;50.870;4.722;2023-04-23T07:23:34;9.23;;;3.50;;
14554;SDS011;7364;50.870;4.722;2023-04-23T07:26:02;9.57;;;3.70;;
14554;SDS011;7364;50.870;4.722;2023-04-23T07:28:30;8.13;;;4.23;;
14554;SDS011;7364;50.870;4.722;2023-04-23T07:30:57;12.50;;;4.13;;
14554;SDS011;7364;50.870;4.722;2023-04-23T07:33:24;5.97;;;3.90;;
14554;SDS011;7364;50.870;4.722;2023-04-23T07:35:52;8.13;;;3.40;;
14554;SDS011;7364;50.870;4.722;2023-04-23T07:38:19;8.37;;;3.97;;
14554;SDS011;7364;50.870;4.722;2023-04-23T07:40:47;7.17;;;3.73;;
14554;SDS011;7364;50.870;4.722;2023-04-23T07:43:15;8.13;;;3.53;;
14554;SDS011;7364;50.870;4.722;2023-04-23T07:45:43;7.23;;;3.83;;
14554;SDS011;7364;50.870;4.722;2023-04-23T07:48:10;7.50;;;3.30;;
14554;SDS011;7364;50.870;4.722;2023-04-23T07:50:38;7.33;;;3.73;;
14554;SDS011;7364;50.870;4.722;2023-04-23T07:53:05;5.13;;;3.40;;
14554;SDS011;7364;50.870;4.722;2023-04-23T07:55:32;8.80;;;3.87;;
14554;SDS011;7364;50.870;4.722;2023-04-23T07:57:59;9.50;;;3.80;;
14554;SDS011;7364;50.870;4.722;2023-04-23T08:00:28;7.30;;;3.20;;
14554;SDS011;7364;50.870;4.722;2023-04-23T08:02:57;5.07;;;3.00;;
14554;SDS011;7364;50.870;4.722;2023-04-23T08:05:24;5.70;;;3.33;;
14554;SDS011;7364;50.870;4.722;2023-04-23T08:07:52;6.30;;;3.43;;
14554;SDS011;7364;50.870;4.722;2023-04-23T08:10:19;7.73;;;3.20;;
14554;SDS011;7364;50.870;4.722;2023-04-23T08:12:46;9.30;;;2.97;;
14554;SDS011;7364;50.870;4.722;2023-04-23T08:15:14;4.50;;;3.13;;
14554;SDS011;7364;50.870;4.722;2023-04-23T08:17:43;6.83;;;2.83;;
14554;SDS011;7364;50.870;4.722;2023-04-23T08:20:10;6.73;;;2.87;;
14554;SDS011;7364;50.870;4.722;2023-04-23T08:22:38;4.77;;;2.90;;
14554;SDS011;7364;50.870;4.722;2023-04-23T08:25:05;7.23;;;3.53;;
14554;SDS011;7364;50.870;4.722;2023-04-23T08:27:33;10.27;;;3.70;;
14554;SDS011;7364;50.870;4.722;2023-04-23T08:30:01;4.70;;;2.97;;
14554;SDS011;7364;50.870;4.722;2023-04-23T08:32:28;13.17;;;3.97;;
14554;SDS011;7364;50.870;4.722;2023-04-23T08:34:57;7.60;;;3.73;;
14554;SDS011;7364;50.870;4.722;2023-04-23T08:37:24;5.07;;;2.77;;
14554;SDS011;7364;50.870;4.722;2023-04-23T08:39:52;4.87;;;2.90;;
14554;SDS011;7364;50.870;4.722;2023-04-23T08:42:21;5.23;;;2.80;;
14554;SDS011;7364;50.870;4.722;2023-04-23T08:44:55;7.90;;;3.23;;
14554;SDS011;7364;50.870;4.722;2023-04-23T08:47:23;4.93;;;2.33;;
14554;SDS011;7364;50.870;4.722;2023-04-23T08:49:52;8.17;;;3.03;;
14554;SDS011;7364;50.870;4.722;2023-04-23T08:52:23;13.80;;;3.43;;
14554;SDS011;7364;50.870;4.722;2023-04-23T08:54:52;5.70;;;3.07;;
14554;SDS011;7364;50.870;4.722;2023-04-23T08:57:24;5.30;;;2.30;;
14554;SDS011;7364;50.870;4.722;2023-04-23T08:59:52;12.00;;;3.23;;
14554;SDS011;7364;50.870;4.722;2023-04-23T09:02:20;5.37;;;2.33;;
14554;SDS011;7364;50.870;4.722;2023-04-23T09:04:48;5.03;;;2.33;;
14554;SDS011;7364;50.870;4.722;2023-04-23T09:07:18;5.60;;;2.13;;
14554;SDS011;7364;50.870;4.722;2023-04-23T09:09:47;7.47;;;2.67;;
14554;SDS011;7364;50.870;4.722;2023-04-23T09:12:14;5.20;;;2.23;;
14554;SDS011;7364;50.870;4.722;2023-04-23T09:14:42;4.67;;;2.20;;
14554;SDS011;7364;50.870;4.722;2023-04-23T09:17:10;3.80;;;2.33;;
14554;SDS011;7364;50.870;4.722;2023-04-23T09:19:37;9.43;;;2.63;;
14554;SDS011;7364;50.870;4.722;2023-04-23T09:22:05;5.40;;;2.60;;
14554;SDS011;7364;50.870;4.722;2023-04-23T09:24:34;3.67;;;2.10;;
14554;SDS011;7364;50.870;4.722;2023-04-23T09:27:03;6.33;;;2.77;;
14554;SDS011;7364;50.870;4.722;2023-04-23T09:29:31;7.67;;;2.73;;
14554;SDS011;7364;50.870;4.722;2023-04-23T09:32:04;4.03;;;2.30;;
14554;SDS011;7364;50.870;4.722;2023-04-23T09:34:33;7.07;;;2.60;;
14554;SDS011;7364;50.870;4.722;2023-04-23T09:37:03;5.63;;;2.43;;
14554;SDS011;7364;50.870;4.722;2023-04-23T09:39:32;5.00;;;2.13;;
14554;SDS011;7364;50.870;4.722;2023-04-23T09:42:03;6.83;;;2.37;;
14554;SDS011;7364;50.870;4.722;2023-04-23T09:44:33;10.60;;;2.47;;
14554;SDS011;7364;50.870;4.722;2023-04-23T09:47:07;6.30;;;2.10;;
14554;SDS011;7364;50.870;4.722;2023-04-23T09:49:45;3.00;;;1.43;;
14554;SDS011;7364;50.870;4.722;2023-04-23T09:52:13;8.93;;;3.07;;
14554;SDS011;7364;50.870;4.722;2023-04-23T09:54:40;4.00;;;2.33;;
14554;SDS011;7364;50.870;4.722;2023-04-23T09:57:11;8.00;;;3.70;;
14554;SDS011;7364;50.870;4.722;2023-04-23T09:59:39;7.77;;;2.40;;
14554;SDS011;7364;50.870;4.722;2023-04-23T10:02:07;6.67;;;2.40;;
14554;SDS011;7364;50.870;4.722;2023-04-23T10:04:36;6.37;;;2.77;;
14554;SDS011;7364;50.870;4.722;2023-04-23T10:07:05;6.73;;;2.50;;
14554;SDS011;7364;50.870;4.722;2023-04-23T10:09:38;16.70;;;4.40;;
14554;SDS011;7364;50.870;4.722;2023-04-23T10:12:06;6.33;;;2.43;;
14554;SDS011;7364;50.870;4.722;2023-04-23T10:14:36;7.07;;;2.90;;
14554;SDS011;7364;50.870;4.722;2023-04-23T10:17:05;7.30;;;2.87;;
14554;SDS011;7364;50.870;4.722;2023-04-23T10:19:34;5.50;;;2.50;;
14554;SDS011;7364;50.870;4.722;2023-04-23T10:22:05;7.07;;;2.50;;
14554;SDS011;7364;50.870;4.722;2023-04-23T10:24:38;6.27;;;2.47;;
14554;SDS011;7364;50.870;4.722;2023-04-23T10:27:09;4.97;;;2.43;;
14554;SDS011;7364;50.870;4.722;2023-04-23T10:29:39;12.40;;;2.97;;
14554;SDS011;7364;50.870;4.722;2023-04-23T10:32:08;2.63;;;1.77;;
14554;SDS011;7364;50.870;4.722;2023-04-23T10:34:37;6.50;;;2.10;;
14554;SDS011;7364;50.870;4.722;2023-04-23T10:37:06;7.97;;;2.20;;
14554;SDS011;7364;50.870;4.722;2023-04-23T10:39:36;4.33;;;2.27;;
14554;SDS011;7364;50.870;4.722;2023-04-23T10:42:04;7.70;;;2.57;;
14554;SDS011;7364;50.870;4.722;2023-04-23T10:44:32;4.63;;;2.03;;
14554;SDS011;7364;50.870;4.722;2023-04-23T10:47:03;5.03;;;2.27;;
14554;SDS011;7364;50.870;4.722;2023-04-23T10:49:31;8.57;;;1.93;;
14554;SDS011;7364;50.870;4.722;2023-04-23T10:52:00;2.97;;;1.60;;
14554;SDS011;7364;50.870;4.722;2023-04-23T10:54:29;3.50;;;1.77;;
14554;SDS011;7364;50.870;4.722;2023-04-23T10:56:57;5.90;;;2.50;;
14554;SDS011;7364;50.870;4.722;2023-04-23T10:59:27;7.07;;;2.50;;
14554;SDS011;7364;50.870;4.722;2023-04-23T11:01:56;11.97;;;2.50;;
14554;SDS011;7364;50.870;4.722;2023-04-23T11:04:28;6.77;;;2.27;;
14554;SDS011;7364;50.870;4.722;2023-04-23T11:06:56;7.70;;;2.07;;
14554;SDS011;7364;50.870;4.722;2023-04-23T11:09:27;3.57;;;1.87;;
14554;SDS011;7364;50.870;4.722;2023-04-23T11:11:56;9.40;;;2.37;;
14554;SDS011;7364;50.870;4.722;2023-04-23T11:14:35;5.33;;;2.33;;
14554;SDS011;7364;50.870;4.722;2023-04-23T11:17:06;7.23;;;1.83;;
14554;SDS011;7364;50.870;4.722;2023-04-23T11:19:39;5.33;;;1.83;;
14554;SDS011;7364;50.870;4.722;2023-04-23T11:22:11;6.73;;;2.27;;
14554;SDS011;7364;50.870;4.722;2023-04-23T11:24:43;3.63;;;2.13;;
14554;SDS011;7364;50.870;4.722;2023-04-23T11:27:11;7.07;;;2.07;;
14554;SDS011;7364;50.870;4.722;2023-04-23T11:29:41;5.13;;;1.97;;
14554;SDS011;7364;50.870;4.722;2023-04-23T11:32:10;6.90;;;2.40;;
14554;SDS011;7364;50.870;4.722;2023-04-23T11:34:40;6.43;;;2.53;;
14554;SDS011;7364;50.870;4.722;2023-04-23T11:37:08;8.83;;;2.23;;
14554;SDS011;7364;50.870;4.722;2023-04-23T11:39:39;6.37;;;2.43;;
14554;SDS011;7364;50.870;4.722;2023-04-23T11:42:08;8.17;;;2.07;;
14554;SDS011;7364;50.870;4.722;2023-04-23T11:44:36;15.97;;;4.83;;
14554;SDS011;7364;50.870;4.722;2023-04-23T11:47:06;13.57;;;3.77;;
14554;SDS011;7364;50.870;4.722;2023-04-23T11:49:35;7.40;;;2.67;;
14554;SDS011;7364;50.870;4.722;2023-04-23T11:52:05;9.37;;;2.60;;
14554;SDS011;7364;50.870;4.722;2023-04-23T11:54:32;5.73;;;1.40;;
14554;SDS011;7364;50.870;4.722;2023-04-23T11:57:00;9.47;;;2.20;;
14554;SDS011;7364;50.870;4.722;2023-04-23T11:59:30;8.80;;;2.33;;
14554;SDS011;7364;50.870;4.722;2023-04-23T12:01:57;4.20;;;1.97;;
14554;SDS011;7364;50.870;4.722;2023-04-23T12:04:26;6.70;;;2.13;;
14554;SDS011;7364;50.870;4.722;2023-04-23T12:06:55;4.13;;;1.60;;
14554;SDS011;7364;50.870;4.722;2023-04-23T12:09:26;3.77;;;2.00;;
14554;SDS011;7364;50.870;4.722;2023-04-23T12:11:54;4.13;;;1.73;;
14554;SDS011;7364;50.870;4.722;2023-04-23T12:14:27;5.13;;;2.17;;
14554;SDS011;7364;50.870;4.722;2023-04-23T12:16:57;6.13;;;1.97;;
14554;SDS011;7364;50.870;4.722;2023-04-23T12:19:35;5.97;;;2.17;;
14554;SDS011;7364;50.870;4.722;2023-04-23T12:22:02;5.67;;;2.43;;
14554;SDS011;7364;50.870;4.722;2023-04-23T12:24:45;2.53;;;1.60;;
14554;SDS011;7364;50.870;4.722;2023-04-23T12:27:17;4.60;;;2.27;;
14554;SDS011;7364;50.870;4.722;2023-04-23T12:29:46;5.07;;;2.30;;
14554;SDS011;7364;50.870;4.722;2023-04-23T12:32:14;4.33;;;1.50;;
14554;SDS011;7364;50.870;4.722;2023-04-23T12:34:50;4.07;;;2.10;;
14554;SDS011;7364;50.870;4.722;2023-04-23T12:37:22;5.17;;;2.17;;
14554;SDS011;7364;50.870;4.722;2023-04-23T12:39:52;4.07;;;1.90;;
14554;SDS011;7364;50.870;4.722;2023-04-23T12:42:20;5.07;;;1.93;;
14554;SDS011;7364;50.870;4.722;2023-04-23T12:44:48;4.33;;;1.63;;
14554;SDS011;7364;50.870;4.722;2023-04-23T12:47:16;5.60;;;1.80;;
14554;SDS011;7364;50.870;4.722;2023-04-23T12:49:44;4.87;;;1.73;;
14554;SDS011;7364;50.870;4.722;2023-04-23T12:52:13;6.50;;;2.30;;
14554;SDS011;7364;50.870;4.722;2023-04-23T12:54:41;8.53;;;2.30;;
14554;SDS011;7364;50.870;4.722;2023-04-23T12:57:13;3.90;;;1.90;;
14554;SDS011;7364;50.870;4.722;2023-04-23T12:59:40;5.07;;;2.00;;
14554;SDS011;7364;50.870;4.722;2023-04-23T13:02:08;5.27;;;2.40;;
14554;SDS011;7364;50.870;4.722;2023-04-23T13:04:35;4.23;;;2.03;;
14554;SDS011;7364;50.870;4.722;2023-04-23T13:07:03;5.27;;;2.40;;
14554;SDS011;7364;50.870;4.722;2023-04-23T13:09:30;3.30;;;2.07;;
14554;SDS011;7364;50.870;4.722;2023-04-23T13:12:00;2.73;;;1.50;;
14554;SDS011;7364;50.870;4.722;2023-04-23T13:14:28;3.23;;;1.83;;
14554;SDS011;7364;50.870;4.722;2023-04-23T13:16:56;6.87;;;2.07;;
14554;SDS011;7364;50.870;4.722;2023-04-23T13:19:23;5.60;;;2.10;;
14554;SDS011;7364;50.870;4.722;2023-04-23T13:21:51;5.37;;;2.03;;
14554;SDS011;7364;50.870;4.722;2023-04-23T13:24:18;4.27;;;1.67;;
14554;SDS011;7364;50.870;4.722;2023-04-23T13:26:45;4.83;;;2.30;;
14554;SDS011;7364;50.870;4.722;2023-04-23T13:29:13;7.83;;;2.13;;
14554;SDS011;7364;50.870;4.722;2023-04-23T13:31:41;3.50;;;1.90;;
14554;SDS011;7364;50.870;4.722;2023-04-23T13:34:09;2.63;;;1.67;;
14554;SDS011;7364;50.870;4.722;2023-04-23T13:36:36;4.43;;;2.07;;
14554;SDS011;7364;50.870;4.722;2023-04-23T13:39:05;6.40;;;1.90;;
14554;SDS011;7364;50.870;4.722;2023-04-23T13:41:34;4.20;;;1.77;;
14554;SDS011;7364;50.870;4.722;2023-04-23T13:44:01;3.17;;;1.70;;
14554;SDS011;7364;50.870;4.722;2023-04-23T13:46:29;4.20;;;2.13;;
14554;SDS011;7364;50.870;4.722;2023-04-23T13:48:58;5.83;;;3.33;;
14554;SDS011;7364;50.870;4.722;2023-04-23T13:51:26;7.50;;;2.83;;
14554;SDS011;7364;50.870;4.722;2023-04-23T13:53:55;6.37;;;2.97;;
14554;SDS011;7364;50.870;4.722;2023-04-23T13:56:23;9.10;;;4.10;;
14554;SDS011;7364;50.870;4.722;2023-04-23T13:58:51;4.30;;;2.83;;
14554;SDS011;7364;50.870;4.722;2023-04-23T14:01:20;6.60;;;3.30;;
14554;SDS011;7364;50.870;4.722;2023-04-23T14:03:48;5.83;;;3.20;;
14554;SDS011;7364;50.870;4.722;2023-04-23T14:06:17;6.97;;;3.27;;
14554;SDS011;7364;50.870;4.722;2023-04-23T14:08:44;5.03;;;3.00;;
14554;SDS011;7364;50.870;4.722;2023-04-23T14:11:11;5.87;;;3.00;;
14554;SDS011;7364;50.870;4.722;2023-04-23T14:13:39;5.53;;;2.77;;
14554;SDS011;7364;50.870;4.722;2023-04-23T14:16:07;4.53;;;2.70;;
14554;SDS011;7364;50.870;4.722;2023-04-23T14:18:34;10.40;;;2.77;;
14554;SDS011;7364;50.870;4.722;2023-04-23T14:21:01;4.07;;;2.20;;
14554;SDS011;7364;50.870;4.722;2023-04-23T14:23:43;8.13;;;2.90;;
14554;SDS011;7364;50.870;4.722;2023-04-23T14:26:20;4.43;;;2.60;;
14554;SDS011;7364;50.870;4.722;2023-04-23T14:28:55;2.90;;;1.90;;
14554;SDS011;7364;50.870;4.722;2023-04-23T14:31:26;4.13;;;2.07;;
14554;SDS011;7364;50.870;4.722;2023-04-23T14:33:54;2.43;;;1.80;;
14554;SDS011;7364;50.870;4.722;2023-04-23T14:36:23;6.33;;;2.30;;
14554;SDS011;7364;50.870;4.722;2023-04-23T14:38:51;2.97;;;1.97;;
14554;SDS011;7364;50.870;4.722;2023-04-23T14:41:19;6.03;;;2.60;;
14554;SDS011;7364;50.870;4.722;2023-04-23T14:43:49;4.87;;;2.30;;
14554;SDS011;7364;50.870;4.722;2023-04-23T14:46:16;4.30;;;2.03;;
14554;SDS011;7364;50.870;4.722;2023-04-23T14:48:44;3.47;;;1.77;;
14554;SDS011;7364;50.870;4.722;2023-04-23T14:51:11;3.33;;;1.93;;
14554;SDS011;7364;50.870;4.722;2023-04-23T14:53:39;3.40;;;1.70;;
14554;SDS011;7364;50.870;4.722;2023-04-23T14:56:07;3.50;;;2.33;;
14554;SDS011;7364;50.870;4.722;2023-04-23T14:58:35;2.80;;;1.67;;